Event-Kalender
Terminkalender Drucken Email help
Jahresansicht Monatsansicht Wochenansicht Heute Suche Zum ausgwählten Monat wechseln
Termine für
Sonntag, 7. Mai 2017



JEvents v1.5.5e   Copyright © 2006-2011

Zufallsbild

Aktuelle Termine

Mo Di Mi Do Fr Sa So
1 2 3 4 5 6 7
8 9 10 11 12 13 14
15 16 17 18 19 20 21
22 23 24 25 26 27 28
29 30 31 1 2 3 4

Pilotenwetter

[source: ADDS]
METAR
EDDH 180420Z 20006KT 7000 FEW006 BKN250 16/16 Q1012 TEMPO 4000 BR BKN006 =
TAF
TAF EDDH 172300Z 1800/1906 22007KT 8000 SCT009 BKN025 TEMPO 1800/1807 3000 BR BKN007 TEMPO 1812/1819 3000 RA BKN005 TEMPO 1813/1816 30007KT PROB30 TEMPO 1819/1906 4000 BR BKN006 PROB30 TEMPO 1902/1905 SHRA BKN012CB BECMG 1903/1906 23012KT =